createdAt,value
2022-11-25T00:01:32.517Z,8.90
2022-11-25T00:04:01.419Z,8.90
2022-11-25T00:06:31.407Z,8.90
2022-11-25T00:09:02.519Z,8.90
2022-11-25T00:11:31.327Z,8.90
2022-11-25T00:13:59.707Z,8.90
2022-11-25T00:16:29.034Z,8.90
2022-11-25T00:18:58.795Z,8.90
2022-11-25T00:21:29.231Z,8.90
2022-11-25T00:23:58.985Z,8.90
2022-11-25T00:26:29.981Z,8.90
2022-11-25T00:28:59.839Z,8.90
2022-11-25T00:31:29.888Z,8.90
2022-11-25T00:33:58.443Z,8.90
2022-11-25T00:36:29.280Z,8.90
2022-11-25T00:38:58.795Z,8.90
2022-11-25T00:41:46.997Z,9.00
2022-11-25T00:44:38.766Z,8.90
2022-11-25T00:47:10.306Z,9.10
2022-11-25T00:49:39.263Z,9.00
2022-11-25T00:52:07.811Z,9.00
2022-11-25T00:54:36.215Z,9.00
2022-11-25T00:57:05.851Z,9.00
2022-11-25T00:59:34.061Z,9.00
2022-11-25T01:02:02.313Z,9.10
2022-11-25T01:04:30.569Z,9.10
2022-11-25T01:07:00.002Z,9.10
2022-11-25T01:09:28.716Z,9.20
2022-11-25T01:11:56.954Z,9.20
2022-11-25T01:14:27.401Z,9.10
2022-11-25T01:16:55.730Z,9.20
2022-11-25T01:19:24.233Z,9.20
2022-11-25T01:21:52.423Z,9.20
2022-11-25T01:24:23.893Z,9.30
2022-11-25T01:26:52.415Z,9.30
2022-11-25T01:29:20.886Z,9.30
2022-11-25T01:31:50.807Z,9.30
2022-11-25T01:34:21.309Z,9.20
2022-11-25T01:36:50.167Z,9.30
2022-11-25T01:39:19.918Z,9.30
2022-11-25T01:41:49.103Z,9.30
2022-11-25T01:44:19.365Z,9.20
2022-11-25T01:47:02.833Z,9.20
2022-11-25T01:49:35.898Z,9.20
2022-11-25T01:52:10.106Z,9.20
2022-11-25T01:54:42.158Z,9.20
2022-11-25T01:57:14.251Z,9.20
2022-11-25T01:59:47.336Z,9.30
2022-11-25T02:02:18.021Z,9.20
2022-11-25T02:04:47.439Z,9.20
2022-11-25T02:07:22.459Z,9.20
2022-11-25T02:09:51.969Z,9.20
2022-11-25T02:12:21.600Z,9.20
2022-11-25T02:14:51.726Z,9.20
2022-11-25T02:17:21.488Z,9.20
2022-11-25T02:19:59.719Z,9.20
2022-11-25T02:22:47.822Z,9.20
2022-11-25T02:25:20.699Z,9.20
2022-11-25T02:27:53.130Z,9.20
2022-11-25T02:30:21.451Z,9.20
2022-11-25T02:32:49.784Z,9.20
2022-11-25T02:35:30.079Z,9.20
2022-11-25T02:38:03.628Z,9.20
2022-11-25T02:40:36.042Z,9.20
2022-11-25T02:43:04.508Z,9.30
2022-11-25T02:45:43.685Z,9.30
2022-11-25T02:48:11.952Z,9.30
2022-11-25T02:50:40.122Z,9.30
2022-11-25T02:53:08.408Z,9.30
2022-11-25T02:55:37.940Z,9.30
2022-11-25T02:58:06.329Z,9.40
2022-11-25T03:00:34.604Z,9.40
2022-11-25T03:03:02.888Z,9.40
2022-11-25T03:05:31.110Z,9.40
2022-11-25T03:07:59.330Z,9.50
2022-11-25T03:10:27.909Z,9.40
2022-11-25T03:12:57.629Z,9.50
2022-11-25T03:15:26.393Z,9.50
2022-11-25T03:17:55.001Z,9.60
2022-11-25T03:20:23.208Z,9.60
2022-11-25T03:22:51.538Z,9.70
2022-11-25T03:25:20.161Z,9.70
2022-11-25T03:27:48.767Z,9.70
2022-11-25T03:30:20.224Z,9.70
2022-11-25T03:32:48.640Z,9.70
2022-11-25T03:35:17.735Z,9.70
2022-11-25T03:37:46.552Z,9.80
2022-11-25T03:40:16.238Z,9.80
2022-11-25T03:42:44.946Z,9.80
2022-11-25T03:45:26.505Z,9.90
2022-11-25T03:47:54.644Z,9.90
2022-11-25T03:50:22.789Z,9.90
2022-11-25T03:52:50.983Z,10.00
2022-11-25T03:55:19.304Z,10.00
2022-11-25T03:57:47.597Z,10.00
2022-11-25T04:00:16.172Z,10.00
2022-11-25T04:02:45.823Z,10.00
2022-11-25T04:05:14.023Z,10.10
2022-11-25T04:07:42.262Z,10.10
2022-11-25T04:10:11.498Z,10.10
2022-11-25T04:12:47.687Z,10.10
2022-11-25T04:15:17.123Z,10.10
2022-11-25T04:17:46.949Z,10.10
2022-11-25T04:20:16.111Z,10.10
2022-11-25T04:22:44.327Z,10.10
2022-11-25T04:25:13.097Z,10.20
2022-11-25T04:27:41.209Z,10.20
2022-11-25T04:30:10.381Z,10.20
2022-11-25T04:32:39.367Z,10.20
2022-11-25T04:35:09.868Z,10.20
2022-11-25T04:37:38.145Z,10.20
2022-11-25T04:40:07.616Z,10.30
2022-11-25T04:42:37.929Z,10.30
2022-11-25T04:45:24.378Z,10.30
2022-11-25T04:47:52.932Z,10.30
2022-11-25T04:50:24.364Z,10.30
2022-11-25T04:52:52.503Z,10.30
2022-11-25T04:55:20.732Z,10.30
2022-11-25T04:57:48.947Z,10.30
2022-11-25T05:00:17.068Z,10.30
2022-11-25T05:02:45.277Z,10.30
2022-11-25T05:05:13.693Z,10.30
2022-11-25T05:07:43.356Z,10.30
2022-11-25T05:10:11.735Z,10.40
2022-11-25T05:12:40.293Z,10.40
2022-11-25T05:15:10.148Z,10.30
2022-11-25T05:17:39.104Z,10.30
2022-11-25T05:20:09.089Z,10.40
2022-11-25T05:22:37.363Z,10.30
2022-11-25T05:25:07.429Z,10.30
2022-11-25T05:27:35.650Z,10.30
2022-11-25T05:30:04.073Z,10.30
2022-11-25T05:32:32.569Z,10.40
2022-11-25T05:35:00.767Z,10.30
2022-11-25T05:37:28.952Z,10.40
2022-11-25T05:39:58.135Z,10.30
2022-11-25T05:42:29.891Z,10.30
2022-11-25T05:44:58.081Z,10.40
2022-11-25T05:47:26.255Z,10.30
2022-11-25T05:49:54.505Z,10.30
2022-11-25T05:52:22.720Z,10.40
2022-11-25T05:54:55.730Z,10.40
2022-11-25T05:57:25.375Z,10.30
2022-11-25T05:59:54.866Z,10.40
2022-11-25T06:02:23.132Z,10.40
2022-11-25T06:04:51.289Z,10.30
2022-11-25T06:07:19.525Z,10.30
2022-11-25T06:09:47.796Z,10.30
2022-11-25T06:12:16.062Z,10.20
2022-11-25T06:14:44.216Z,10.30
2022-11-25T06:17:13.844Z,10.30
2022-11-25T06:19:42.208Z,10.20
2022-11-25T06:22:10.412Z,10.20
2022-11-25T06:24:38.710Z,10.30
2022-11-25T06:27:06.985Z,10.20
2022-11-25T06:29:35.702Z,10.20
2022-11-25T06:32:04.064Z,10.30
2022-11-25T06:34:33.874Z,10.20
2022-11-25T06:37:02.248Z,10.20
2022-11-25T06:39:30.411Z,10.10
2022-11-25T06:41:58.581Z,10.20
2022-11-25T06:44:26.880Z,10.10
2022-11-25T06:46:55.208Z,10.10
2022-11-25T06:49:23.441Z,10.10
2022-11-25T06:51:53.001Z,10.10
2022-11-25T06:54:21.273Z,10.20
2022-11-25T06:56:51.659Z,10.20
2022-11-25T06:59:20.314Z,10.20
2022-11-25T07:01:48.930Z,10.20
2022-11-25T07:04:17.149Z,10.30
2022-11-25T07:06:45.339Z,10.30
2022-11-25T07:09:14.851Z,10.30
2022-11-25T07:11:43.420Z,10.30
2022-11-25T07:14:14.726Z,10.30
2022-11-25T07:16:45.650Z,10.20
2022-11-25T07:19:16.234Z,10.20
2022-11-25T07:21:45.675Z,10.20
2022-11-25T07:24:17.006Z,10.10
2022-11-25T07:26:45.850Z,10.10
2022-11-25T07:29:49.972Z,10.00
2022-11-25T07:32:10.008Z,10.10
2022-11-25T07:34:39.142Z,10.00
2022-11-25T07:37:08.045Z,10.00
2022-11-25T07:39:37.701Z,10.00
2022-11-25T07:42:06.261Z,9.90
2022-11-25T07:44:34.616Z,9.90
2022-11-25T07:47:02.856Z,9.90
2022-11-25T07:49:31.020Z,9.80
2022-11-25T07:52:02.242Z,9.80
2022-11-25T07:54:30.976Z,9.70
2022-11-25T07:57:00.481Z,9.70
2022-11-25T07:59:29.042Z,9.70
2022-11-25T08:01:57.609Z,9.60
2022-11-25T08:04:25.917Z,9.60
2022-11-25T08:06:54.785Z,9.70
2022-11-25T08:09:25.155Z,9.70
2022-11-25T08:11:54.079Z,9.60
2022-11-25T08:14:23.883Z,9.60
2022-11-25T08:16:52.133Z,9.50
2022-11-25T08:19:20.646Z,9.60
2022-11-25T08:21:48.930Z,9.60
2022-11-25T08:24:20.530Z,9.60
2022-11-25T08:26:49.753Z,9.60
2022-11-25T08:29:19.766Z,9.70
2022-11-25T08:31:49.517Z,9.70
2022-11-25T08:34:19.947Z,9.80
2022-11-25T08:36:49.044Z,9.80
2022-11-25T08:42:07.426Z,9.90
2022-11-25T08:44:35.709Z,10.00
2022-11-25T08:47:05.287Z,10.00
2022-11-25T08:49:39.193Z,10.10
2022-11-25T08:52:09.734Z,10.20
2022-11-25T08:54:38.320Z,10.30
2022-11-25T08:57:06.445Z,10.30
2022-11-25T08:59:35.155Z,10.40
2022-11-25T09:02:05.273Z,10.40
2022-11-25T09:04:33.715Z,10.50
2022-11-25T09:07:02.587Z,10.50
2022-11-25T09:09:30.858Z,10.60
2022-11-25T09:11:59.053Z,10.70
2022-11-25T09:14:27.441Z,10.70
2022-11-25T09:16:57.211Z,10.70
2022-11-25T09:19:26.695Z,10.80
2022-11-25T09:21:55.457Z,10.90
2022-11-25T09:24:23.681Z,10.90
2022-11-25T09:26:52.043Z,11.00
2022-11-25T09:29:20.321Z,11.10
2022-11-25T09:31:54.503Z,11.10
2022-11-25T09:34:23.273Z,11.20
2022-11-25T09:36:52.925Z,11.20
2022-11-25T09:39:21.555Z,11.30
2022-11-25T09:42:20.862Z,11.30
2022-11-25T09:45:17.931Z,11.30
2022-11-25T09:47:57.542Z,11.30
2022-11-25T09:50:41.688Z,11.50
2022-11-25T09:53:23.257Z,11.50
2022-11-25T09:56:01.194Z,11.60
2022-11-25T09:58:35.450Z,11.60
2022-11-25T10:01:07.179Z,11.70
2022-11-25T10:03:41.056Z,11.70
2022-11-25T10:06:16.129Z,11.80
2022-11-25T10:08:48.967Z,11.80
2022-11-25T10:11:36.209Z,11.90
2022-11-25T10:14:09.339Z,11.90
2022-11-25T10:16:51.149Z,12.00
2022-11-25T10:19:29.758Z,12.10
2022-11-25T10:21:58.179Z,12.20
2022-11-25T10:24:27.781Z,12.30
2022-11-25T10:27:00.665Z,12.20
2022-11-25T10:29:30.106Z,12.20
2022-11-25T10:32:10.446Z,12.30
2022-11-25T10:34:43.456Z,12.30
2022-11-25T10:37:17.135Z,12.40
2022-11-25T10:39:46.807Z,12.40
2022-11-25T10:42:19.674Z,12.50
2022-11-25T10:44:48.434Z,12.50
2022-11-25T10:47:35.151Z,12.50
2022-11-25T10:50:17.391Z,12.60
2022-11-25T10:52:52.251Z,12.60
2022-11-25T10:55:25.722Z,12.60
2022-11-25T10:57:55.079Z,12.60
2022-11-25T11:00:30.139Z,12.70
2022-11-25T11:03:01.069Z,12.70
2022-11-25T11:05:31.870Z,12.80
2022-11-25T11:08:18.099Z,12.80
2022-11-25T11:10:52.888Z,12.90
2022-11-25T11:13:26.636Z,13.00
2022-11-25T11:15:55.989Z,13.00
2022-11-25T11:18:28.715Z,13.10
2022-11-25T11:20:59.567Z,13.20
2022-11-25T11:23:30.088Z,13.20
2022-11-25T11:26:02.904Z,13.30
2022-11-25T11:28:41.496Z,13.30
2022-11-25T11:31:18.808Z,13.40
2022-11-25T11:33:59.269Z,13.50
2022-11-25T11:36:36.808Z,13.50
2022-11-25T11:39:20.368Z,13.50
2022-11-25T11:41:56.164Z,13.40
2022-11-25T11:44:34.700Z,13.40
2022-11-25T11:47:16.493Z,13.40
2022-11-25T11:50:14.011Z,13.40
2022-11-25T11:52:55.545Z,13.40
2022-11-25T11:55:39.896Z,13.40
2022-11-25T11:58:20.938Z,13.50
2022-11-25T12:01:00.356Z,13.50
2022-11-25T12:03:30.536Z,13.50
2022-11-25T12:06:02.002Z,13.50
2022-11-25T12:08:39.164Z,13.50
2022-11-25T12:11:13.898Z,13.50
2022-11-25T12:13:50.752Z,13.50
2022-11-25T12:16:25.833Z,13.50
2022-11-25T12:18:59.667Z,13.50
2022-11-25T12:21:43.067Z,13.50
2022-11-25T12:24:21.816Z,13.40
2022-11-25T12:26:55.415Z,13.40
2022-11-25T12:29:32.393Z,13.50
2022-11-25T12:32:31.276Z,13.50
2022-11-25T12:35:03.925Z,13.50
2022-11-25T12:37:37.156Z,13.40
2022-11-25T12:40:13.808Z,13.50
2022-11-25T12:42:43.529Z,13.40
2022-11-25T12:45:19.707Z,13.50
2022-11-25T12:47:48.182Z,13.40
2022-11-25T12:50:18.397Z,13.30
2022-11-25T12:52:55.249Z,13.30
2022-11-25T12:55:24.081Z,13.40
2022-11-25T12:58:22.365Z,13.30
2022-11-25T13:01:26.686Z,13.40
2022-11-25T13:04:17.916Z,13.40
2022-11-25T13:07:07.826Z,13.40
2022-11-25T13:10:21.059Z,13.40
2022-11-25T13:13:00.929Z,13.50
2022-11-25T13:15:32.830Z,13.40
2022-11-25T13:18:10.138Z,13.50
2022-11-25T13:20:46.721Z,13.60
2022-11-25T13:23:33.547Z,13.70
2022-11-25T13:26:47.363Z,13.70
2022-11-25T13:30:04.336Z,13.70
2022-11-25T13:32:37.746Z,13.70
2022-11-25T13:35:51.089Z,13.70
2022-11-25T13:38:58.742Z,13.80
2022-11-25T13:41:41.030Z,13.80
2022-11-25T13:44:28.074Z,13.80
2022-11-25T13:46:58.305Z,13.90
2022-11-25T13:49:34.349Z,13.90
2022-11-25T13:52:08.290Z,13.80
2022-11-25T13:54:41.559Z,13.80
2022-11-25T13:57:25.701Z,13.70
2022-11-25T13:59:57.855Z,13.70
2022-11-25T14:02:44.689Z,13.70
2022-11-25T14:05:49.623Z,13.80
2022-11-25T14:08:34.136Z,13.70
2022-11-25T14:11:24.649Z,13.70
2022-11-25T14:14:05.528Z,13.70
2022-11-25T14:16:44.928Z,13.70
2022-11-25T14:22:35.635Z,13.90
2022-11-25T14:25:17.148Z,14.10
2022-11-25T14:27:48.834Z,14.20
2022-11-25T14:30:18.829Z,14.20
2022-11-25T14:33:01.054Z,14.30
2022-11-25T14:35:36.157Z,14.40
2022-11-25T14:38:10.349Z,14.50
2022-11-25T14:40:43.210Z,14.60
2022-11-25T14:43:16.559Z,14.80
2022-11-25T14:45:44.896Z,14.80
2022-11-25T14:48:17.253Z,14.80
2022-11-25T14:50:56.648Z,14.80
2022-11-25T14:53:26.452Z,14.80
2022-11-25T14:55:59.996Z,14.80
2022-11-25T14:58:29.331Z,14.70
2022-11-25T15:01:02.052Z,14.60
2022-11-25T15:03:33.207Z,14.50
2022-11-25T15:06:04.574Z,14.40
2022-11-25T15:08:40.930Z,14.30
2022-11-25T15:11:15.420Z,14.30
2022-11-25T15:13:45.413Z,14.20
2022-11-25T15:16:17.127Z,14.10
2022-11-25T15:18:49.899Z,14.00
2022-11-25T15:21:21.485Z,13.90
2022-11-25T15:23:50.100Z,13.80
2022-11-25T15:26:21.615Z,13.70
2022-11-25T15:28:55.811Z,13.60
2022-11-25T15:31:29.100Z,13.60
2022-11-25T15:34:00.432Z,13.50
2022-11-25T15:36:29.178Z,13.50
2022-11-25T15:39:15.050Z,13.40
2022-11-25T15:41:46.679Z,13.40
2022-11-25T15:44:26.127Z,13.30
2022-11-25T15:47:01.578Z,13.20
2022-11-25T15:49:30.221Z,13.20
2022-11-25T15:52:04.533Z,13.10
2022-11-25T15:54:39.269Z,13.10
2022-11-25T15:57:17.983Z,13.00
2022-11-25T15:59:51.454Z,12.90
2022-11-25T16:02:51.319Z,12.90
2022-11-25T16:05:34.100Z,12.80
2022-11-25T16:08:18.549Z,12.80
2022-11-25T16:10:55.466Z,12.70
2022-11-25T16:13:38.510Z,12.70
2022-11-25T16:16:25.707Z,12.70
2022-11-25T16:19:16.023Z,12.60
2022-11-25T16:22:00.673Z,12.60
2022-11-25T16:24:35.066Z,12.50
2022-11-25T16:27:07.633Z,12.40
2022-11-25T16:29:40.747Z,12.40
2022-11-25T16:32:15.528Z,12.40
2022-11-25T16:34:44.070Z,12.40
2022-11-25T16:37:12.380Z,12.40
2022-11-25T16:39:40.652Z,12.40
2022-11-25T16:42:16.877Z,12.40
2022-11-25T16:44:49.299Z,12.40
2022-11-25T16:47:18.311Z,12.40
2022-11-25T16:49:46.917Z,12.40
2022-11-25T16:52:15.276Z,12.50
2022-11-25T16:54:43.458Z,12.50
2022-11-25T16:57:18.258Z,12.40
2022-11-25T16:59:55.810Z,12.40
2022-11-25T17:02:26.836Z,12.40
2022-11-25T17:04:55.373Z,12.40
2022-11-25T17:07:32.828Z,12.40
2022-11-25T17:10:01.877Z,12.40
2022-11-25T17:12:32.331Z,12.40
2022-11-25T17:15:04.054Z,12.40
2022-11-25T17:17:32.814Z,12.40
2022-11-25T17:20:01.366Z,12.40
2022-11-25T17:22:34.703Z,12.40
2022-11-25T17:25:07.446Z,12.40
2022-11-25T17:27:35.770Z,12.40
2022-11-25T17:30:07.587Z,12.40
2022-11-25T17:32:37.197Z,12.40
2022-11-25T17:35:16.869Z,12.30
2022-11-25T17:37:45.066Z,12.30
2022-11-25T17:40:14.153Z,12.30
2022-11-25T17:42:43.612Z,12.20
2022-11-25T17:45:16.469Z,12.20
2022-11-25T17:47:45.291Z,12.20
2022-11-25T17:50:19.980Z,12.10
2022-11-25T17:52:48.617Z,12.20
2022-11-25T17:55:19.455Z,12.20
2022-11-25T17:57:48.090Z,12.20
2022-11-25T18:00:20.218Z,12.20
2022-11-25T18:02:48.659Z,12.20
2022-11-25T18:05:18.765Z,12.20
2022-11-25T18:07:47.630Z,12.20
2022-11-25T18:10:17.811Z,12.20
2022-11-25T18:12:48.182Z,12.20
2022-11-25T18:15:20.063Z,12.20
2022-11-25T18:17:48.670Z,12.20
2022-11-25T18:20:18.933Z,12.10
2022-11-25T18:22:47.984Z,12.10
2022-11-25T18:25:17.045Z,12.10
2022-11-25T18:27:46.255Z,12.10
2022-11-25T18:30:21.124Z,12.10
2022-11-25T18:32:49.722Z,12.10
2022-11-25T18:35:20.307Z,12.10
2022-11-25T18:37:48.782Z,12.10
2022-11-25T18:40:18.148Z,12.10
2022-11-25T18:42:50.387Z,12.10
2022-11-25T18:45:22.076Z,12.10
2022-11-25T18:47:50.964Z,12.10
2022-11-25T18:50:21.759Z,12.10
2022-11-25T18:52:50.824Z,12.10
2022-11-25T18:55:20.445Z,12.10
2022-11-25T18:57:50.576Z,12.10
2022-11-25T19:00:38.029Z,12.10
2022-11-25T19:03:14.610Z,12.10
2022-11-25T19:05:42.822Z,12.10
2022-11-25T19:08:10.978Z,12.10
2022-11-25T19:10:41.863Z,12.10
2022-11-25T19:13:15.506Z,12.00
2022-11-25T19:15:46.715Z,12.00
2022-11-25T19:18:19.442Z,12.00
2022-11-25T19:20:47.694Z,12.00
2022-11-25T19:23:21.239Z,12.00
2022-11-25T19:25:50.421Z,12.00
2022-11-25T19:28:19.044Z,11.90
2022-11-25T19:30:49.304Z,11.90
2022-11-25T19:33:25.651Z,11.90
2022-11-25T19:35:54.056Z,11.80
2022-11-25T19:38:26.243Z,11.80
2022-11-25T19:40:54.848Z,11.80
2022-11-25T19:43:23.811Z,11.80
2022-11-25T19:45:53.713Z,11.70
2022-11-25T19:48:25.103Z,11.70
2022-11-25T19:50:59.387Z,11.60
2022-11-25T19:53:33.520Z,11.60
2022-11-25T19:56:04.237Z,11.60
2022-11-25T19:58:33.255Z,11.50
2022-11-25T20:01:05.844Z,11.50
2022-11-25T20:03:36.700Z,11.40
2022-11-25T20:06:06.436Z,11.40
2022-11-25T20:08:35.082Z,11.30
2022-11-25T20:11:03.539Z,11.30
2022-11-25T20:13:31.869Z,11.30
2022-11-25T20:16:00.460Z,11.30
2022-11-25T20:18:30.831Z,11.30
2022-11-25T20:21:02.742Z,11.30
2022-11-25T20:23:38.768Z,11.20
2022-11-25T20:26:18.564Z,11.20
2022-11-25T20:28:47.195Z,11.20
2022-11-25T20:31:15.838Z,11.20
2022-11-25T20:33:45.582Z,11.10
2022-11-25T20:36:17.365Z,11.10
2022-11-25T20:38:48.298Z,11.10
2022-11-25T20:41:18.998Z,11.10
2022-11-25T20:43:51.133Z,11.00
2022-11-25T20:46:21.282Z,11.00
2022-11-25T20:48:55.048Z,11.00
2022-11-25T20:51:24.846Z,11.00
2022-11-25T20:53:56.098Z,10.90
2022-11-25T20:56:25.953Z,10.90
2022-11-25T20:58:54.156Z,10.90
2022-11-25T21:01:22.434Z,10.90
2022-11-25T21:03:52.099Z,10.90
2022-11-25T21:06:22.358Z,10.80
2022-11-25T21:08:53.108Z,10.80
2022-11-25T21:11:22.788Z,10.80
2022-11-25T21:13:51.817Z,10.80
2022-11-25T21:16:20.303Z,10.80
2022-11-25T21:18:48.557Z,10.70
2022-11-25T21:21:20.736Z,10.70
2022-11-25T21:23:49.487Z,10.70
2022-11-25T21:26:20.532Z,10.80
2022-11-25T21:28:51.192Z,10.70
2022-11-25T21:31:21.878Z,10.60
2022-11-25T21:33:50.909Z,10.60
2022-11-25T21:36:24.328Z,10.60
2022-11-25T21:38:57.720Z,10.60
2022-11-25T21:41:25.925Z,10.60
2022-11-25T21:43:54.158Z,10.50
2022-11-25T21:46:25.384Z,10.50
2022-11-25T21:48:53.669Z,10.50
2022-11-25T21:51:24.175Z,10.50
2022-11-25T21:53:53.937Z,10.50
2022-11-25T21:56:28.029Z,10.50
2022-11-25T21:58:57.029Z,10.40
2022-11-25T22:01:25.489Z,10.40
2022-11-25T22:03:54.830Z,10.40
2022-11-25T22:06:26.468Z,10.40
2022-11-25T22:08:55.521Z,10.40
2022-11-25T22:11:30.290Z,10.40
2022-11-25T22:13:58.876Z,10.40
2022-11-25T22:16:32.116Z,10.40
2022-11-25T22:19:01.162Z,10.30
2022-11-25T22:21:30.730Z,10.30
2022-11-25T22:23:58.949Z,10.30
2022-11-25T22:26:30.688Z,10.20
2022-11-25T22:29:00.056Z,10.20
2022-11-25T22:31:29.282Z,10.20
2022-11-25T22:33:57.880Z,10.10
2022-11-25T22:36:34.132Z,10.10
2022-11-25T22:39:13.227Z,10.00
2022-11-25T22:41:42.476Z,10.00
2022-11-25T22:44:18.535Z,9.90
2022-11-25T22:46:47.436Z,9.80
2022-11-25T22:49:29.389Z,9.80
2022-11-25T22:51:59.298Z,9.70
2022-11-25T22:54:27.629Z,9.70
2022-11-25T22:56:56.960Z,9.60
2022-11-25T22:59:25.093Z,9.60
2022-11-25T23:01:53.368Z,9.60
2022-11-25T23:04:21.941Z,9.60
2022-11-25T23:06:50.198Z,9.50
2022-11-25T23:09:20.852Z,9.50
2022-11-25T23:11:49.515Z,9.40
2022-11-25T23:14:17.694Z,9.40
2022-11-25T23:16:45.944Z,9.30
2022-11-25T23:19:16.618Z,9.30
2022-11-25T23:21:45.917Z,9.10
2022-11-25T23:24:16.397Z,9.10
2022-11-25T23:26:46.296Z,9.10
2022-11-25T23:29:14.702Z,9.00
2022-11-25T23:31:43.527Z,9.00
2022-11-25T23:34:13.414Z,8.90
2022-11-25T23:36:45.597Z,8.80
2022-11-25T23:39:19.886Z,8.80
2022-11-25T23:41:50.186Z,8.80
2022-11-25T23:44:23.420Z,8.70
2022-11-25T23:46:52.737Z,8.70
2022-11-25T23:49:25.041Z,8.70
2022-11-25T23:51:56.179Z,8.60
2022-11-25T23:54:29.753Z,8.60
2022-11-25T23:56:59.262Z,8.50
2022-11-25T23:59:30.936Z,8.50
